Time;durP1;ratioP1;P1;durP2;ratioP2;P2;SDS_P1;SDS_P2;PMS_P1;PMS_P2;Temp;Humidity;BMP_temperature;BMP_pressure;BME280_temperature;BME280_humidity;BME280_pressure;Samples;Min_cycle;Max_cycle;Signal;HPM_P1;HPM_P2
2023/09/17 00:01:17;;;;;;;3.45;3.15;;;19.40;77.90;;;;;;6101326;23;20553;-81
2023/09/17 00:03:43;;;;;;;3.53;3.22;;;19.40;77.80;;;;;;6151857;22;20132;-84
2023/09/17 00:06:09;;;;;;;3.40;3.10;;;19.50;78.00;;;;;;6151305;22;20220;-80
2023/09/17 00:08:35;;;;;;;3.40;3.10;;;19.40;78.00;;;;;;6150861;22;20132;-83
2023/09/17 00:11:02;;;;;;;3.75;3.20;;;19.40;78.00;;;;;;6125462;23;20132;-84
2023/09/17 00:13:28;;;;;;;3.47;3.10;;;19.50;78.00;;;;;;6101125;23;20582;-80
2023/09/17 00:15:54;;;;;;;3.55;3.25;;;19.40;77.90;;;;;;6151415;23;20514;-82
2023/09/17 00:18:20;;;;;;;3.50;3.13;;;19.40;77.90;;;;;;6151781;22;20163;-83
2023/09/17 00:20:45;;;;;;;3.17;2.88;;;19.40;77.90;;;;;;6125204;23;20510;-84
2023/09/17 00:23:11;;;;;;;3.25;2.95;;;19.50;78.00;;;;;;6150897;22;20199;-81
2023/09/17 00:25:37;;;;;;;3.10;2.80;;;19.40;78.00;;;;;;6151193;22;20717;-80
2023/09/17 00:28:03;;;;;;;3.75;3.38;;;19.40;77.90;;;;;;6101022;23;20151;-83
2023/09/17 00:30:29;;;;;;;3.10;2.80;;;19.40;78.00;;;;;;6125400;23;20136;-81
2023/09/17 00:32:55;;;;;;;3.35;3.05;;;19.40;77.90;;;;;;6151329;22;20630;-83
2023/09/17 00:35:20;;;;;;;3.50;2.83;;;19.50;78.00;;;;;;6151104;22;20167;-81
2023/09/17 00:37:46;;;;;;;3.15;2.85;;;19.50;78.00;;;;;;6151311;22;20215;-83
2023/09/17 00:40:12;;;;;;;2.90;2.60;;;19.40;77.90;;;;;;6125190;23;20457;-82
2023/09/17 00:42:39;;;;;;;3.45;3.15;;;19.40;78.00;;;;;;6151348;22;20136;-84
2023/09/17 00:45:05;;;;;;;3.30;3.00;;;19.40;78.80;;;;;;6125847;23;20585;-81
2023/09/17 00:47:31;;;;;;;3.13;2.83;;;19.40;78.00;;;;;;6150742;23;20178;-82
2023/09/17 00:49:57;;;;;;;3.40;3.10;;;19.40;78.00;;;;;;6125480;23;20151;-82
2023/09/17 00:52:23;;;;;;;3.55;3.13;;;19.40;78.00;;;;;;6125131;23;20163;-85
2023/09/17 00:54:49;;;;;;;3.60;2.97;;;19.40;78.00;;;;;;6151532;22;20144;-80
2023/09/17 00:57:16;;;;;;;3.58;3.10;;;19.40;78.80;;;;;;6151254;22;20222;-84
2023/09/17 00:59:44;;;;;;;3.58;2.90;;;19.40;78.00;;;;;;6151298;22;20132;-83
2023/09/17 01:02:10;;;;;;;3.20;2.90;;;19.40;78.00;;;;;;6125498;23;20213;-84
2023/09/17 01:04:37;;;;;;;3.78;2.95;;;19.40;78.10;;;;;;6151061;23;20168;-84
2023/09/17 01:07:04;;;;;;;3.25;2.95;;;19.40;78.10;;;;;;6151058;23;20641;-84
2023/09/17 01:09:30;;;;;;;3.08;2.78;;;19.40;78.10;;;;;;6150876;22;20136;-84
2023/09/17 01:11:56;;;;;;;3.25;2.95;;;19.40;78.10;;;;;;6124961;23;20144;-83
2023/09/17 01:14:21;;;;;;;3.30;3.00;;;19.40;78.10;;;;;;6126250;23;20148;-82
2023/09/17 01:16:48;;;;;;;3.53;2.85;;;19.40;78.10;;;;;;6124939;23;20613;-82
2023/09/17 01:19:26;;;;;;;3.60;3.30;;;19.40;78.10;;;;;;6124373;23;20151;-83
2023/09/17 01:22:01;;;;;;;3.10;2.80;;;19.40;78.10;;;;;;6198874;23;20583;-82
2023/09/17 01:24:40;;;;;;;2.85;2.65;;;19.40;78.10;;;;;;6200140;23;20201;-83
2023/09/17 01:27:06;;;;;;;3.40;3.10;;;19.40;78.10;;;;;;6124900;23;20257;-82
2023/09/17 01:29:37;;;;;;;3.72;3.30;;;19.40;78.10;;;;;;6202605;23;20178;-82
2023/09/17 01:32:06;;;;;;;3.45;3.10;;;19.40;78.10;;;;;;6125589;23;20524;-81
2023/09/17 01:34:37;;;;;;;3.38;3.08;;;19.40;78.20;;;;;;6075745;23;20151;-82
2023/09/17 01:37:07;;;;;;;3.35;3.05;;;19.40;78.10;;;;;;6150936;22;20143;-81
2023/09/17 01:39:36;;;;;;;3.17;2.88;;;19.30;78.00;;;;;;6101794;23;20132;-83
2023/09/17 01:42:02;;;;;;;3.20;2.90;;;19.40;78.10;;;;;;6100797;23;20239;-84
2023/09/17 01:44:29;;;;;;;3.10;2.80;;;19.40;78.10;;;;;;6150836;23;20702;-83
2023/09/17 01:46:55;;;;;;;3.30;3.00;;;19.40;78.10;;;;;;6150850;22;20216;-81
2023/09/17 01:49:20;;;;;;;3.40;3.10;;;19.40;78.10;;;;;;6151378;22;20533;-83
2023/09/17 01:51:46;;;;;;;3.17;2.78;;;19.40;78.20;;;;;;6150978;22;20139;-83
2023/09/17 01:54:12;;;;;;;3.10;2.80;;;19.40;78.20;;;;;;6124843;23;20452;-82
2023/09/17 01:56:38;;;;;;;3.28;2.97;;;19.40;78.20;;;;;;6150825;22;20445;-81
2023/09/17 01:59:05;;;;;;;3.25;2.90;;;19.40;78.20;;;;;;6150632;22;20146;-82
2023/09/17 02:01:32;;;;;;;3.08;2.78;;;19.40;78.10;;;;;;6124910;23;20226;-81
2023/09/17 02:03:58;;;;;;;3.10;2.80;;;19.40;78.20;;;;;;6151466;22;20614;-81
2023/09/17 02:06:23;;;;;;;3.47;3.17;;;19.40;78.20;;;;;;6124681;23;20171;-82
2023/09/17 02:08:49;;;;;;;3.08;2.80;;;19.40;78.20;;;;;;6099457;23;20155;-81
2023/09/17 02:11:15;;;;;;;3.08;2.78;;;19.40;78.20;;;;;;6150712;22;20131;-81
2023/09/17 02:13:41;;;;;;;3.80;3.05;;;19.40;78.20;;;;;;6124971;23;20514;-80
2023/09/17 02:16:07;;;;;;;3.03;2.58;;;19.40;78.20;;;;;;6124609;23;20163;-82
2023/09/17 02:18:33;;;;;;;3.28;2.97;;;19.40;78.20;;;;;;6124522;23;20138;-84
2023/09/17 02:20:59;;;;;;;2.88;2.67;;;19.30;78.20;;;;;;6125010;23;20139;-81
2023/09/17 02:23:25;;;;;;;3.45;3.13;;;19.40;78.20;;;;;;6150690;22;20197;-80
2023/09/17 02:25:51;;;;;;;3.08;2.78;;;19.30;78.10;;;;;;6100637;23;20171;-81
2023/09/17 02:28:17;;;;;;;2.65;2.45;;;19.40;78.30;;;;;;6125003;23;20143;-84
2023/09/17 02:30:43;;;;;;;3.88;3.13;;;19.40;78.20;;;;;;6100516;23;20140;-84
2023/09/17 02:33:10;;;;;;;3.13;2.83;;;19.40;78.20;;;;;;6150667;22;20132;-81
2023/09/17 02:35:37;;;;;;;3.35;3.00;;;19.40;78.20;;;;;;6150413;22;20140;-79
2023/09/17 02:38:04;;;;;;;3.30;3.00;;;19.30;78.20;;;;;;6124544;23;20147;-83
2023/09/17 02:40:30;;;;;;;3.40;3.10;;;19.40;78.30;;;;;;6124488;23;20140;-81
2023/09/17 02:42:55;;;;;;;3.20;2.90;;;19.40;78.30;;;;;;6100315;23;20899;-80
2023/09/17 02:45:21;;;;;;;3.17;2.88;;;19.40;78.30;;;;;;6150285;22;20136;-83
2023/09/17 02:47:47;;;;;;;2.88;2.58;;;19.30;78.20;;;;;;6150666;22;20517;-83
2023/09/17 02:50:13;;;;;;;3.00;2.70;;;19.40;78.20;;;;;;6150523;22;20139;-83
2023/09/17 02:52:39;;;;;;;3.13;2.80;;;19.40;78.30;;;;;;6150427;22;20132;-84
2023/09/17 02:55:05;;;;;;;3.22;2.90;;;19.40;78.30;;;;;;6100380;23;20156;-80
2023/09/17 02:57:31;;;;;;;3.38;3.00;;;19.30;78.10;;;;;;6150938;22;20563;-81
2023/09/17 02:59:57;;;;;;;3.20;2.80;;;19.30;78.20;;;;;;6124352;23;20144;-81
2023/09/17 03:02:23;;;;;;;3.05;2.75;;;19.30;78.20;;;;;;6150469;22;20136;-80
2023/09/17 03:04:52;;;;;;;3.28;2.97;;;19.40;78.30;;;;;;6150385;22;20209;-82
2023/09/17 03:07:18;;;;;;;3.42;3.10;;;19.40;78.30;;;;;;6124486;23;20172;-82
2023/09/17 03:09:45;;;;;;;3.40;3.10;;;19.40;78.30;;;;;;6123839;23;20551;-82
2023/09/17 03:12:11;;;;;;;3.60;2.83;;;19.40;78.30;;;;;;6150043;23;20140;-82
2023/09/17 03:14:36;;;;;;;3.20;2.90;;;19.30;78.20;;;;;;6150460;22;20563;-82
2023/09/17 03:17:05;;;;;;;3.30;2.85;;;19.40;78.30;;;;;;6150366;22;20470;-81
2023/09/17 03:19:31;;;;;;;3.92;2.95;;;19.30;78.30;;;;;;6124275;23;20151;-81
2023/09/17 03:21:57;;;;;;;2.97;2.67;;;19.40;78.30;;;;;;6150576;22;20637;-86
2023/09/17 03:24:23;;;;;;;3.17;2.88;;;19.40;78.30;;;;;;6150017;22;20195;-83
2023/09/17 03:26:49;;;;;;;3.85;3.28;;;19.30;78.30;;;;;;6124278;23;20213;-82
2023/09/17 03:29:15;;;;;;;3.50;3.10;;;19.30;78.30;;;;;;6101185;23;20144;-81
2023/09/17 03:31:41;;;;;;;3.28;2.90;;;19.40;78.30;;;;;;6125686;23;20564;-79
2023/09/17 03:34:07;;;;;;;3.10;2.80;;;19.30;78.30;;;;;;6151216;22;20132;-84
2023/09/17 03:36:37;;;;;;;2.75;2.55;;;19.30;78.30;;;;;;6152157;22;20167;-83
2023/09/17 03:39:06;;;;;;;3.40;3.00;;;19.30;78.30;;;;;;6151790;22;20567;-79
2023/09/17 03:41:32;;;;;;;3.50;3.20;;;19.40;78.30;;;;;;6126085;23;20151;-82
2023/09/17 03:43:58;;;;;;;3.45;3.13;;;19.30;78.30;;;;;;6101734;23;20645;-82
2023/09/17 03:46:24;;;;;;;3.47;3.15;;;19.40;78.30;;;;;;6101381;23;20171;-81
2023/09/17 03:48:50;;;;;;;3.75;3.00;;;19.30;78.30;;;;;;6132599;23;20136;-79
2023/09/17 03:51:16;;;;;;;3.33;2.97;;;19.40;78.30;;;;;;6132544;23;20135;-81
2023/09/17 03:53:43;;;;;;;3.15;2.85;;;19.40;78.30;;;;;;6132795;23;20154;-82
2023/09/17 03:56:11;;;;;;;3.20;2.90;;;19.40;78.40;;;;;;6158612;23;20140;-81
2023/09/17 03:58:37;;;;;;;3.33;2.90;;;19.40;78.40;;;;;;6153309;22;20128;-82
2023/09/17 04:01:06;;;;;;;3.35;2.97;;;19.40;78.40;;;;;;6125975;23;20128;-84
2023/09/17 04:03:36;;;;;;;3.10;2.80;;;19.40;78.40;;;;;;6126394;23;20456;-79
2023/09/17 04:06:03;;;;;;;3.17;2.88;;;19.40;78.30;;;;;;6204672;23;20273;-83
2023/09/17 04:08:29;;;;;;;2.95;2.67;;;19.40;78.30;;;;;;6102760;23;20156;-80
2023/09/17 04:10:59;;;;;;;3.13;2.83;;;19.40;78.30;;;;;;6152032;22;20147;-81
2023/09/17 04:13:27;;;;;;;3.00;2.70;;;19.30;78.30;;;;;;6177102;23;20602;-81
2023/09/17 04:15:53;;;;;;;3.42;2.85;;;19.40;78.40;;;;;;6125496;23;20226;-81
2023/09/17 04:18:20;;;;;;;3.20;2.90;;;19.30;78.40;;;;;;6150934;22;20174;-84
2023/09/17 04:20:47;;;;;;;2.97;2.78;;;19.30;78.40;;;;;;6201671;23;20590;-82
2023/09/17 04:23:13;;;;;;;3.17;2.80;;;19.40;78.50;;;;;;6125344;22;20232;-81
2023/09/17 04:25:40;;;;;;;3.05;2.75;;;19.40;78.50;;;;;;6151689;22;20215;-82
2023/09/17 04:28:06;;;;;;;3.17;2.65;;;19.40;78.50;;;;;;6075666;23;20177;-81
2023/09/17 04:30:31;;;;;;;3.30;3.00;;;19.40;78.50;;;;;;6151406;22;20583;-84
2023/09/17 04:32:58;;;;;;;3.00;2.70;;;19.30;78.40;;;;;;6125689;23;20438;-80
2023/09/17 04:35:24;;;;;;;3.20;2.63;;;19.30;78.40;;;;;;6177165;23;20151;-78
2023/09/17 04:37:50;;;;;;;3.17;2.88;;;19.40;78.50;;;;;;6125485;23;20147;-81
2023/09/17 04:40:18;;;;;;;3.17;2.78;;;19.40;78.50;;;;;;6125054;23;20160;-82
2023/09/17 04:42:44;;;;;;;3.22;2.92;;;19.30;78.40;;;;;;6101671;23;20139;-82
2023/09/17 04:45:19;;;;;;;2.83;2.53;;;19.40;78.40;;;;;;6101073;23;20152;-80
2023/09/17 04:47:44;;;;;;;2.90;2.60;;;19.40;78.50;;;;;;6078509;23;20269;-83
2023/09/17 04:50:12;;;;;;;3.03;2.72;;;19.30;78.40;;;;;;6101287;23;20178;-81
2023/09/17 04:52:40;;;;;;;3.10;2.80;;;19.30;78.50;;;;;;6201929;23;20200;-81
2023/09/17 04:55:06;;;;;;;3.17;2.70;;;19.30;78.40;;;;;;6075694;23;20162;-79
2023/09/17 04:57:32;;;;;;;2.97;2.67;;;19.40;78.50;;;;;;6125228;23;20165;-82
2023/09/17 04:59:59;;;;;;;3.00;2.70;;;19.40;78.50;;;;;;6124806;23;20148;-84
2023/09/17 05:02:25;;;;;;;3.40;3.10;;;19.40;78.50;;;;;;6125484;23;20194;-83
2023/09/17 05:04:51;;;;;;;3.03;2.75;;;19.30;78.40;;;;;;6151211;22;20136;-81
2023/09/17 05:07:17;;;;;;;3.03;2.67;;;19.30;78.50;;;;;;6151056;22;20171;-82
2023/09/17 05:09:43;;;;;;;2.95;2.65;;;19.30;78.40;;;;;;6150932;22;20139;-83
2023/09/17 05:12:09;;;;;;;2.72;2.33;;;19.30;78.40;;;;;;6124845;23;20182;-81
2023/09/17 05:14:35;;;;;;;2.70;2.50;;;19.40;78.60;;;;;;6100896;23;20139;-82
2023/09/17 05:17:00;;;;;;;3.10;2.80;;;19.30;78.40;;;;;;6125083;23;20151;-83
2023/09/17 05:19:26;;;;;;;2.92;2.63;;;19.40;78.60;;;;;;6124999;23;20135;-81
2023/09/17 05:21:52;;;;;;;3.13;2.78;;;19.40;78.50;;;;;;6150726;22;20143;-81
2023/09/17 05:24:18;;;;;;;2.78;2.42;;;19.40;78.50;;;;;;6150408;22;20522;-80
2023/09/17 05:26:43;;;;;;;3.17;2.80;;;19.30;79.20;;;;;;6150717;22;20172;-83
2023/09/17 05:29:15;;;;;;;2.80;2.60;;;19.40;78.50;;;;;;6151126;22;20136;-85
2023/09/17 05:31:40;;;;;;;2.65;2.45;;;19.40;78.50;;;;;;6151363;22;20144;-82
2023/09/17 05:34:06;;;;;;;3.25;2.90;;;19.40;78.40;;;;;;6124524;23;20140;-83
2023/09/17 05:36:32;;;;;;;3.00;2.70;;;19.40;78.40;;;;;;6150956;22;20139;-85
2023/09/17 05:38:58;;;;;;;2.92;2.67;;;19.30;79.20;;;;;;6125141;23;20816;-81
2023/09/17 05:41:24;;;;;;;2.80;2.60;;;19.40;78.50;;;;;;6125068;23;20198;-81
2023/09/17 05:43:50;;;;;;;3.03;2.72;;;19.40;78.50;;;;;;6151344;22;20144;-80
2023/09/17 05:46:15;;;;;;;3.60;3.08;;;19.30;78.40;;;;;;6150546;22;20186;-83
2023/09/17 05:48:41;;;;;;;3.75;2.88;;;19.40;78.60;;;;;;6150974;22;20144;-84
2023/09/17 05:51:07;;;;;;;3.05;2.70;;;19.30;78.50;;;;;;6150669;22;20597;-81
2023/09/17 05:53:33;;;;;;;2.95;2.65;;;19.40;78.50;;;;;;6150940;22;20132;-82
2023/09/17 05:56:01;;;;;;;3.28;2.50;;;19.40;78.60;;;;;;6124957;23;20223;-83
2023/09/17 05:58:26;;;;;;;3.40;3.10;;;19.40;78.60;;;;;;6125061;23;20170;-82
2023/09/17 06:00:53;;;;;;;2.63;2.42;;;19.40;78.60;;;;;;6100941;23;20463;-83
2023/09/17 06:03:19;;;;;;;2.58;2.33;;;19.40;78.60;;;;;;6125254;23;20135;-81
2023/09/17 06:05:44;;;;;;;3.13;2.83;;;19.40;78.60;;;;;;6124668;23;20140;-84
2023/09/17 06:08:10;;;;;;;2.90;2.60;;;19.40;78.60;;;;;;6150085;22;20155;-83
2023/09/17 06:10:36;;;;;;;2.88;2.58;;;19.40;78.60;;;;;;6150777;22;20567;-83
2023/09/17 06:13:02;;;;;;;3.20;2.85;;;19.40;78.70;;;;;;6150781;22;20623;-82
2023/09/17 06:15:28;;;;;;;2.97;2.67;;;19.40;78.60;;;;;;6125188;23;20148;-82
2023/09/17 06:17:58;;;;;;;3.70;2.85;;;19.30;78.60;;;;;;6150409;22;20138;-81
2023/09/17 06:20:23;;;;;;;3.03;2.60;;;19.40;78.70;;;;;;6201010;23;20205;-80
2023/09/17 06:22:49;;;;;;;3.80;2.63;;;19.40;78.70;;;;;;6150206;22;20140;-81
2023/09/17 06:25:15;;;;;;;2.95;2.58;;;19.30;78.50;;;;;;6150421;22;20521;-80
2023/09/17 06:27:41;;;;;;;2.72;2.50;;;19.40;78.70;;;;;;6150361;22;20246;-80
2023/09/17 06:30:07;;;;;;;3.00;2.70;;;19.40;78.60;;;;;;6150275;22;20843;-82
2023/09/17 06:32:33;;;;;;;3.20;2.90;;;19.40;78.70;;;;;;6150489;23;20563;-84
2023/09/17 06:34:59;;;;;;;3.15;2.58;;;19.30;78.60;;;;;;6123933;23;20159;-81
2023/09/17 06:37:26;;;;;;;2.70;2.50;;;19.30;78.70;;;;;;6150188;22;20136;-81
2023/09/17 06:39:52;;;;;;;2.45;2.25;;;19.40;78.40;;;;;;6150582;22;20219;-83
2023/09/17 06:42:17;;;;;;;2.53;2.33;;;19.40;77.60;;;;;;6150830;22;20186;-80
2023/09/17 06:44:43;;;;;;;2.72;2.22;;;19.40;77.40;;;;;;6150661;22;20463;-79
2023/09/17 06:47:09;;;;;;;2.17;1.92;;;19.40;76.80;;;;;;6150471;22;20179;-80
2023/09/17 06:49:34;;;;;;;2.28;2.03;;;19.40;76.50;;;;;;6150341;22;20448;-83
2023/09/17 06:52:00;;;;;;;2.47;2.10;;;19.40;76.70;;;;;;6150435;22;20301;-79
2023/09/17 06:54:26;;;;;;;2.47;2.10;;;19.40;76.50;;;;;;6124393;23;20148;-82
2023/09/17 06:56:52;;;;;;;1.60;1.50;;;19.40;76.60;;;;;;6124300;23;20144;-81
2023/09/17 06:59:18;;;;;;;1.75;1.65;;;19.40;76.10;;;;;;6150154;22;20167;-83
2023/09/17 07:01:45;;;;;;;1.90;1.70;;;19.40;76.00;;;;;;6124368;23;20131;-81
2023/09/17 07:04:11;;;;;;;1.98;1.77;;;19.30;75.80;;;;;;6125674;23;20178;-82
2023/09/17 07:06:37;;;;;;;2.15;1.75;;;19.30;75.70;;;;;;6126015;23;20176;-84
2023/09/17 07:09:03;;;;;;;1.85;1.60;;;19.40;75.60;;;;;;6150999;22;20205;-80
2023/09/17 07:11:29;;;;;;;1.67;1.58;;;19.30;75.40;;;;;;6151339;23;20135;-83
2023/09/17 07:13:55;;;;;;;1.60;1.50;;;19.30;75.30;;;;;;6125369;23;20175;-79
2023/09/17 07:16:23;;;;;;;1.70;1.60;;;19.30;75.30;;;;;;6150980;23;20223;-83
2023/09/17 07:18:49;;;;;;;2.08;1.77;;;19.30;75.00;;;;;;6125877;23;20563;-80
2023/09/17 07:21:15;;;;;;;1.50;1.40;;;19.30;75.00;;;;;;6125517;23;20449;-83
2023/09/17 07:23:42;;;;;;;1.58;1.48;;;19.30;74.70;;;;;;6125051;22;20191;-81
2023/09/17 07:26:09;;;;;;;1.50;1.40;;;19.30;74.70;;;;;;6126299;23;20186;-81
2023/09/17 07:28:34;;;;;;;1.38;1.27;;;19.30;74.50;;;;;;6151306;23;20155;-81
2023/09/17 07:31:01;;;;;;;1.58;1.48;;;19.30;74.40;;;;;;6151380;22;20567;-84
2023/09/17 07:33:26;;;;;;;1.42;1.33;;;19.30;74.20;;;;;;6125609;23;20549;-80
2023/09/17 07:35:52;;;;;;;1.73;1.58;;;19.30;74.10;;;;;;6151194;22;20143;-81
2023/09/17 07:38:18;;;;;;;1.40;1.30;;;19.30;73.80;;;;;;6125512;23;20556;-81
2023/09/17 07:40:45;;;;;;;1.42;1.33;;;19.30;73.60;;;;;;6151300;22;20544;-82
2023/09/17 07:43:11;;;;;;;1.45;1.20;;;19.30;73.60;;;;;;6125235;23;20520;-82
2023/09/17 07:45:37;;;;;;;1.25;1.15;;;19.30;73.50;;;;;;6125843;23;20128;-81
2023/09/17 07:48:03;;;;;;;1.42;1.33;;;19.30;73.50;;;;;;6125035;23;20139;-81
2023/09/17 07:50:29;;;;;;;1.23;1.13;;;19.30;73.10;;;;;;6151141;22;20155;-82
2023/09/17 07:52:56;;;;;;;1.38;1.27;;;19.30;73.00;;;;;;6125171;23;20560;-81
2023/09/17 07:55:22;;;;;;;1.45;1.20;;;19.20;72.60;;;;;;6124989;23;20174;-83
2023/09/17 07:57:47;;;;;;;1.20;1.10;;;19.30;72.70;;;;;;6151273;22;20468;-81
2023/09/17 08:00:15;;;;;;;1.30;1.20;;;19.30;72.60;;;;;;6151015;23;20510;-82
2023/09/17 08:02:43;;;;;;;1.30;1.20;;;19.30;72.30;;;;;;6151542;23;20171;-80
2023/09/17 08:05:09;;;;;;;1.27;1.17;;;19.30;72.00;;;;;;6151757;22;20159;-82
2023/09/17 08:07:36;;;;;;;0.98;0.95;;;19.30;71.80;;;;;;6124054;23;20590;-82
2023/09/17 08:10:03;;;;;;;1.30;1.20;;;19.30;71.90;;;;;;6151111;22;20136;-83
2023/09/17 08:12:30;;;;;;;1.58;1.27;;;19.30;71.80;;;;;;6151379;22;20128;-81
2023/09/17 08:14:57;;;;;;;1.35;1.25;;;19.30;71.70;;;;;;6101063;23;20170;-84
2023/09/17 08:17:23;;;;;;;1.15;1.08;;;19.30;71.60;;;;;;6151418;22;20136;-84
2023/09/17 08:19:49;;;;;;;1.20;1.10;;;19.40;71.50;;;;;;6100936;23;20201;-80
2023/09/17 08:22:15;;;;;;;1.40;1.08;;;19.30;71.00;;;;;;6124894;23;20135;-81
2023/09/17 08:24:41;;;;;;;1.00;1.00;;;19.40;71.20;;;;;;6120039;22;20248;-81
2023/09/17 08:27:06;;;;;;;1.38;1.08;;;19.30;71.10;;;;;;6120232;23;20244;-81
2023/09/17 08:29:33;;;;;;;0.95;0.90;;;19.30;70.90;;;;;;6122043;23;20140;-82
2023/09/17 08:31:59;;;;;;;1.05;1.00;;;19.30;70.90;;;;;;6120325;23;20182;-81
2023/09/17 08:34:26;;;;;;;1.10;1.00;;;19.30;70.80;;;;;;6119901;23;20137;-84
2023/09/17 08:36:51;;;;;;;1.10;1.00;;;19.40;70.60;;;;;;6120421;23;20564;-82
2023/09/17 08:39:17;;;;;;;1.17;1.00;;;19.30;70.50;;;;;;6120284;23;20166;-83
2023/09/17 08:41:43;;;;;;;1.10;1.00;;;19.30;70.00;;;;;;6121687;23;20465;-83
2023/09/17 08:44:08;;;;;;;0.80;0.80;;;19.30;70.20;;;;;;6121494;23;20471;-81
2023/09/17 08:46:35;;;;;;;0.80;0.80;;;19.30;70.00;;;;;;6121633;23;20176;-81
2023/09/17 08:49:01;;;;;;;1.02;0.93;;;19.30;69.90;;;;;;6121959;23;20220;-83
2023/09/17 08:51:32;;;;;;;0.88;0.88;;;19.30;69.60;;;;;;6121471;23;20642;-82
2023/09/17 08:54:13;;;;;;;1.10;1.00;;;19.30;69.60;;;;;;6072490;23;20164;-82
2023/09/17 08:56:42;;;;;;;1.20;1.10;;;19.30;69.80;;;;;;6121560;23;20147;-83
2023/09/17 08:59:11;;;;;;;0.98;0.75;;;19.30;70.00;;;;;;6121324;23;20175;-82
2023/09/17 09:01:39;;;;;;;1.05;0.95;;;19.20;69.40;;;;;;6119979;23;20522;-80
2023/09/17 09:04:05;;;;;;;0.80;0.80;;;19.20;69.20;;;;;;6121447;23;20140;-81
2023/09/17 09:06:31;;;;;;;0.73;0.73;;;19.20;69.10;;;;;;6119745;23;20173;-82
2023/09/17 09:08:58;;;;;;;0.88;0.88;;;19.30;69.00;;;;;;6120458;23;20152;-80
2023/09/17 09:11:24;;;;;;;1.05;0.85;;;19.30;69.10;;;;;;6119893;23;20489;-81
2023/09/17 09:13:53;;;;;;;0.80;0.80;;;19.20;68.80;;;;;;6121542;23;20164;-84
2023/09/17 09:16:19;;;;;;;1.00;0.90;;;19.20;68.70;;;;;;6121488;23;20136;-82
2023/09/17 09:18:45;;;;;;;0.90;0.80;;;19.20;68.70;;;;;;6121426;23;20455;-82
2023/09/17 09:21:14;;;;;;;0.95;0.80;;;19.10;68.90;;;;;;6095628;23;20152;-79
2023/09/17 09:23:40;;;;;;;1.10;1.00;;;19.10;68.70;;;;;;6131058;22;20603;-79
2023/09/17 09:26:06;;;;;;;1.27;1.17;;;19.10;68.40;;;;;;6150758;22;20176;-79
2023/09/17 09:28:32;;;;;;;0.88;0.88;;;19.10;68.90;;;;;;6125097;23;20143;-79
2023/09/17 09:30:58;;;;;;;1.10;1.00;;;19.10;68.70;;;;;;6151230;22;20132;-80
2023/09/17 09:33:24;;;;;;;1.00;0.90;;;19.10;68.50;;;;;;6151046;22;20136;-80
2023/09/17 09:35:50;;;;;;;0.77;0.73;;;19.10;68.60;;;;;;6124985;23;20163;-80
2023/09/17 09:38:16;;;;;;;0.90;0.90;;;19.10;68.10;;;;;;6150810;23;20136;-83
2023/09/17 09:40:43;;;;;;;0.70;0.70;;;19.10;68.10;;;;;;6100975;23;20140;-79
2023/09/17 09:43:29;;;;;;;1.23;1.02;;;19.10;68.00;;;;;;6125052;23;20199;-81
2023/09/17 09:45:55;;;;;;;0.70;0.70;;;19.10;68.10;;;;;;6125271;23;20136;-82
2023/09/17 09:48:21;;;;;;;0.95;0.93;;;19.00;67.80;;;;;;6150943;23;20136;-79
2023/09/17 09:50:47;;;;;;;0.73;0.73;;;19.10;67.40;;;;;;6150735;22;20146;-78
2023/09/17 09:53:14;;;;;;;0.70;0.70;;;19.10;67.60;;;;;;6151320;22;20566;-81
2023/09/17 09:55:40;;;;;;;0.98;0.95;;;19.10;67.80;;;;;;6151080;22;20167;-79
2023/09/17 09:58:06;;;;;;;0.70;0.70;;;19.00;67.80;;;;;;6150716;22;20476;-80
2023/09/17 10:00:32;;;;;;;1.05;0.80;;;19.10;67.40;;;;;;6150963;22;20563;-79
2023/09/17 10:02:58;;;;;;;1.05;0.90;;;19.00;67.40;;;;;;6150556;22;20132;-81
2023/09/17 10:05:33;;;;;;;1.00;0.90;;;19.00;67.10;;;;;;6151364;22;20147;-80
2023/09/17 10:07:59;;;;;;;0.82;0.77;;;19.00;67.20;;;;;;6124325;23;20194;-79
2023/09/17 10:10:24;;;;;;;0.80;0.80;;;19.00;66.90;;;;;;6154727;22;20488;-81
2023/09/17 10:12:53;;;;;;;0.80;0.80;;;19.10;67.00;;;;;;6157198;22;20559;-81
2023/09/17 10:15:19;;;;;;;1.08;0.70;;;19.00;66.50;;;;;;6157332;22;20136;-81
2023/09/17 10:17:45;;;;;;;0.82;0.70;;;19.00;66.00;;;;;;6130935;23;20212;-83
2023/09/17 10:20:11;;;;;;;1.00;0.88;;;19.00;66.00;;;;;;6127409;23;20219;-80
2023/09/17 10:22:37;;;;;;;0.65;0.60;;;19.10;66.00;;;;;;6150324;22;20155;-81
2023/09/17 10:25:04;;;;;;;1.02;0.80;;;19.10;64.90;;;;;;6150454;22;20195;-82
2023/09/17 10:27:30;;;;;;;0.75;0.75;;;19.10;65.10;;;;;;6150537;22;20175;-78
2023/09/17 10:29:56;;;;;;;0.98;0.85;;;19.10;65.00;;;;;;6100818;23;20156;-83
2023/09/17 10:32:22;;;;;;;0.90;0.63;;;19.10;65.50;;;;;;6124405;23;20151;-81
2023/09/17 10:34:48;;;;;;;0.60;0.60;;;19.00;65.20;;;;;;6150184;22;20140;-80
2023/09/17 10:37:14;;;;;;;0.85;0.77;;;19.00;65.00;;;;;;6150169;22;20158;-80
2023/09/17 10:39:39;;;;;;;0.60;0.60;;;19.10;65.20;;;;;;6151815;23;20146;-80
2023/09/17 10:42:06;;;;;;;1.00;0.82;;;19.10;64.30;;;;;;6151750;22;20142;-81
2023/09/17 10:44:33;;;;;;;0.93;0.80;;;19.10;64.90;;;;;;6151634;22;20555;-80
2023/09/17 10:47:00;;;;;;;1.05;0.82;;;19.10;64.40;;;;;;6151511;22;20507;-80
2023/09/17 10:49:27;;;;;;;0.63;0.63;;;19.10;64.60;;;;;;6151756;22;20128;-80
2023/09/17 10:51:53;;;;;;;0.70;0.70;;;19.10;64.20;;;;;;6152013;22;20140;-80
2023/09/17 10:54:19;;;;;;;0.80;0.75;;;19.10;63.90;;;;;;6125633;23;20155;-81
2023/09/17 10:56:45;;;;;;;0.80;0.80;;;19.10;64.30;;;;;;6151558;22;20139;-80
2023/09/17 10:59:12;;;;;;;0.60;0.60;;;19.00;63.80;;;;;;6151377;22;20140;-79
2023/09/17 11:01:38;;;;;;;0.70;0.70;;;19.10;63.80;;;;;;6151964;22;20132;-80
2023/09/17 11:04:10;;;;;;;0.70;0.60;;;19.10;63.70;;;;;;6151317;22;20215;-82
2023/09/17 11:06:36;;;;;;;0.63;0.63;;;19.10;64.10;;;;;;6151774;22;20186;-80
2023/09/17 11:09:04;;;;;;;0.68;0.68;;;19.00;63.90;;;;;;6150267;22;20132;-79
2023/09/17 11:11:30;;;;;;;0.70;0.70;;;19.00;64.00;;;;;;6151118;23;20170;-80
2023/09/17 11:13:56;;;;;;;0.70;0.70;;;19.00;63.40;;;;;;6151502;22;20567;-80
2023/09/17 11:16:24;;;;;;;0.50;0.50;;;19.00;63.40;;;;;;6101390;23;20151;-82
2023/09/17 11:19:18;;;;;;;0.50;0.50;;;19.10;63.30;;;;;;6125470;23;20132;-82
2023/09/17 11:21:47;;;;;;;0.63;0.63;;;19.10;63.00;;;;;;6151516;22;20219;-79
2023/09/17 11:24:13;;;;;;;0.73;0.70;;;19.10;63.10;;;;;;6120083;23;20213;-80
2023/09/17 11:26:40;;;;;;;0.57;0.57;;;19.10;62.70;;;;;;6096356;23;20262;-81
2023/09/17 11:29:07;;;;;;;0.70;0.70;;;19.10;62.50;;;;;;6120968;23;20144;-80
2023/09/17 11:31:34;;;;;;;0.52;0.52;;;19.10;62.70;;;;;;6120449;23;20151;-80
2023/09/17 11:34:01;;;;;;;0.60;0.60;;;19.10;62.40;;;;;;6122002;23;20133;-79
2023/09/17 11:36:27;;;;;;;0.75;0.75;;;19.00;62.40;;;;;;6121807;23;20143;-82
2023/09/17 11:38:57;;;;;;;0.73;0.60;;;19.10;62.30;;;;;;6119285;23;20251;-82
2023/09/17 11:41:26;;;;;;;0.70;0.70;;;19.10;62.00;;;;;;6222087;23;20218;-81
2023/09/17 11:43:52;;;;;;;1.10;0.80;;;19.10;61.70;;;;;;6095102;23;20147;-79
2023/09/17 11:46:18;;;;;;;1.05;0.70;;;19.10;61.90;;;;;;6121056;23;20200;-80
2023/09/17 11:48:44;;;;;;;0.68;0.50;;;19.10;61.80;;;;;;6120070;23;20198;-79
2023/09/17 11:51:25;;;;;;;0.70;0.70;;;19.10;61.60;;;;;;6121799;23;20136;-80
2023/09/17 11:54:00;;;;;;;0.70;0.70;;;19.10;61.80;;;;;;6121942;23;20176;-80
2023/09/17 11:56:28;;;;;;;0.57;0.57;;;19.10;61.20;;;;;;6120535;23;20143;-81
2023/09/17 11:58:59;;;;;;;0.77;0.60;;;19.10;61.50;;;;;;6120701;23;20235;-80
2023/09/17 12:01:28;;;;;;;0.50;0.50;;;19.10;61.30;;;;;;6122072;23;20206;-81
2023/09/17 12:03:54;;;;;;;0.60;0.60;;;19.00;61.10;;;;;;6121808;23;20223;-80
2023/09/17 12:06:20;;;;;;;0.52;0.52;;;19.00;60.90;;;;;;6119940;23;20627;-81
2023/09/17 12:08:46;;;;;;;0.70;0.50;;;19.00;60.70;;;;;;6119355;23;20133;-79
2023/09/17 12:11:21;;;;;;;0.50;0.50;;;19.10;60.80;;;;;;6096150;23;20141;-80
2023/09/17 12:13:53;;;;;;;0.82;0.70;;;19.00;60.70;;;;;;6121767;23;20147;-80
2023/09/17 12:16:21;;;;;;;0.50;0.50;;;19.00;60.90;;;;;;6120149;23;20145;-82
2023/09/17 12:18:47;;;;;;;0.52;0.52;;;19.10;60.50;;;;;;6120667;23;20143;-80
2023/09/17 12:21:13;;;;;;;0.60;0.60;;;19.00;60.20;;;;;;6120610;23;20218;-82
2023/09/17 12:23:47;;;;;;;0.50;0.50;;;19.10;60.60;;;;;;6128442;22;20488;-79
2023/09/17 12:26:23;;;;;;;0.52;0.52;;;19.00;60.50;;;;;;6151165;22;20178;-80
2023/09/17 12:28:49;;;;;;;0.50;0.50;;;19.00;59.80;;;;;;6151143;23;20223;-82
2023/09/17 12:31:14;;;;;;;0.63;0.50;;;19.00;60.20;;;;;;6125283;23;20163;-79
2023/09/17 12:33:43;;;;;;;0.40;0.40;;;19.10;60.00;;;;;;6151664;22;20513;-79
2023/09/17 12:36:10;;;;;;;0.68;0.68;;;19.10;60.00;;;;;;6150960;22;20150;-80
2023/09/17 12:38:35;;;;;;;0.50;0.50;;;19.10;59.70;;;;;;6151139;23;20140;-82
2023/09/17 12:41:01;;;;;;;0.43;0.43;;;19.10;59.60;;;;;;6151726;22;20195;-79
2023/09/17 12:43:27;;;;;;;0.57;0.55;;;19.10;59.60;;;;;;6151120;22;20452;-79
2023/09/17 12:45:53;;;;;;;0.50;0.50;;;19.00;59.60;;;;;;6151259;22;20139;-82